sensor_id;sensor_type;location;lat;lon;timestamp;temperature;humidity
72380;SHT30;60354;47.798;12.472;2023-12-22T00:02:16;4.63;93.21
72380;SHT30;60354;47.798;12.472;2023-12-22T00:04:41;4.77;93.19
72380;SHT30;60354;47.798;12.472;2023-12-22T00:07:07;4.77;93.53
72380;SHT30;60354;47.798;12.472;2023-12-22T00:09:32;4.79;93.18
72380;SHT30;60354;47.798;12.472;2023-12-22T00:11:57;4.84;93.29
72380;SHT30;60354;47.798;12.472;2023-12-22T00:14:23;4.80;93.60
72380;SHT30;60354;47.798;12.472;2023-12-22T00:16:48;4.59;92.12
72380;SHT30;60354;47.798;12.472;2023-12-22T00:19:14;4.58;90.97
72380;SHT30;60354;47.798;12.472;2023-12-22T00:21:39;4.35;90.81
72380;SHT30;60354;47.798;12.472;2023-12-22T00:24:05;4.27;90.75
72380;SHT30;60354;47.798;12.472;2023-12-22T00:26:30;4.22;91.04
72380;SHT30;60354;47.798;12.472;2023-12-22T00:28:56;4.27;92.03
72380;SHT30;60354;47.798;12.472;2023-12-22T00:31:22;4.25;90.08
72380;SHT30;60354;47.798;12.472;2023-12-22T00:33:47;4.19;90.04
72380;SHT30;60354;47.798;12.472;2023-12-22T00:36:13;4.25;89.52
72380;SHT30;60354;47.798;12.472;2023-12-22T00:38:38;4.15;89.43
72380;SHT30;60354;47.798;12.472;2023-12-22T00:41:04;4.19;89.27
72380;SHT30;60354;47.798;12.472;2023-12-22T00:43:29;4.07;89.66
72380;SHT30;60354;47.798;12.472;2023-12-22T00:45:54;3.86;90.19
72380;SHT30;60354;47.798;12.472;2023-12-22T00:48:22;3.73;89.94
72380;SHT30;60354;47.798;12.472;2023-12-22T00:50:48;3.74;89.82
72380;SHT30;60354;47.798;12.472;2023-12-22T00:53:13;3.64;89.49
72380;SHT30;60354;47.798;12.472;2023-12-22T00:55:39;3.60;88.98
72380;SHT30;60354;47.798;12.472;2023-12-22T00:58:04;3.69;88.83
72380;SHT30;60354;47.798;12.472;2023-12-22T01:00:30;3.63;88.54
72380;SHT30;60354;47.798;12.472;2023-12-22T01:02:55;3.40;88.02
72380;SHT30;60354;47.798;12.472;2023-12-22T01:05:21;3.64;87.57
72380;SHT30;60354;47.798;12.472;2023-12-22T01:07:46;3.46;87.94
72380;SHT30;60354;47.798;12.472;2023-12-22T01:10:12;3.50;87.08
72380;SHT30;60354;47.798;12.472;2023-12-22T01:12:37;3.30;87.97
72380;SHT30;60354;47.798;12.472;2023-12-22T01:15:03;3.33;88.26
72380;SHT30;60354;47.798;12.472;2023-12-22T01:17:29;3.30;87.79
72380;SHT30;60354;47.798;12.472;2023-12-22T01:19:54;2.87;88.96
72380;SHT30;60354;47.798;12.472;2023-12-22T01:22:20;2.91;89.12
72380;SHT30;60354;47.798;12.472;2023-12-22T01:24:45;2.85;89.38
72380;SHT30;60354;47.798;12.472;2023-12-22T01:27:11;3.01;89.74
72380;SHT30;60354;47.798;12.472;2023-12-22T01:29:37;2.70;89.83
72380;SHT30;60354;47.798;12.472;2023-12-22T01:32:04;2.64;89.96
72380;SHT30;60354;47.798;12.472;2023-12-22T01:34:30;2.56;90.26
72380;SHT30;60354;47.798;12.472;2023-12-22T01:36:55;2.46;90.94
72380;SHT30;60354;47.798;12.472;2023-12-22T01:39:21;2.53;90.62
72380;SHT30;60354;47.798;12.472;2023-12-22T01:41:46;2.51;90.72
72380;SHT30;60354;47.798;12.472;2023-12-22T01:44:12;2.51;90.91
72380;SHT30;60354;47.798;12.472;2023-12-22T01:46:37;2.38;91.23
72380;SHT30;60354;47.798;12.472;2023-12-22T01:49:04;2.41;91.13
72380;SHT30;60354;47.798;12.472;2023-12-22T01:51:31;2.38;91.51
72380;SHT30;60354;47.798;12.472;2023-12-22T01:53:57;2.43;91.57
72380;SHT30;60354;47.798;12.472;2023-12-22T01:56:23;2.50;91.52
72380;SHT30;60354;47.798;12.472;2023-12-22T01:58:51;2.58;91.13
72380;SHT30;60354;47.798;12.472;2023-12-22T02:01:20;2.54;90.65
72380;SHT30;60354;47.798;12.472;2023-12-22T02:03:48;2.57;90.73
72380;SHT30;60354;47.798;12.472;2023-12-22T02:06:15;2.68;91.09
72380;SHT30;60354;47.798;12.472;2023-12-22T02:08:43;2.64;90.40
72380;SHT30;60354;47.798;12.472;2023-12-22T02:11:10;2.58;90.29
72380;SHT30;60354;47.798;12.472;2023-12-22T02:13:35;2.44;90.67
72380;SHT30;60354;47.798;12.472;2023-12-22T02:16:04;2.60;90.54
72380;SHT30;60354;47.798;12.472;2023-12-22T02:18:39;2.57;90.60
72380;SHT30;60354;47.798;12.472;2023-12-22T02:21:07;2.40;91.07
72380;SHT30;60354;47.798;12.472;2023-12-22T02:23:33;2.47;91.21
72380;SHT30;60354;47.798;12.472;2023-12-22T02:26:06;2.33;91.43
72380;SHT30;60354;47.798;12.472;2023-12-22T02:28:36;2.44;91.33
72380;SHT30;60354;47.798;12.472;2023-12-22T02:31:45;2.50;91.70
72380;SHT30;60354;47.798;12.472;2023-12-22T02:34:12;2.47;90.88
72380;SHT30;60354;47.798;12.472;2023-12-22T02:36:39;2.50;91.45
72380;SHT30;60354;47.798;12.472;2023-12-22T02:39:07;2.41;91.41
72380;SHT30;60354;47.798;12.472;2023-12-22T02:41:34;2.50;91.69
72380;SHT30;60354;47.798;12.472;2023-12-22T02:44:01;2.51;91.09
72380;SHT30;60354;47.798;12.472;2023-12-22T02:46:27;2.60;91.64
72380;SHT30;60354;47.798;12.472;2023-12-22T02:48:53;2.61;91.14
72380;SHT30;60354;47.798;12.472;2023-12-22T02:51:18;2.65;91.40
72380;SHT30;60354;47.798;12.472;2023-12-22T02:53:44;2.64;91.21
72380;SHT30;60354;47.798;12.472;2023-12-22T02:56:09;2.62;91.04
72380;SHT30;60354;47.798;12.472;2023-12-22T02:58:35;2.58;91.64
72380;SHT30;60354;47.798;12.472;2023-12-22T03:01:00;2.61;92.23
72380;SHT30;60354;47.798;12.472;2023-12-22T03:03:25;2.47;91.80
72380;SHT30;60354;47.798;12.472;2023-12-22T03:05:51;2.51;92.90
72380;SHT30;60354;47.798;12.472;2023-12-22T03:08:16;2.32;91.84
72380;SHT30;60354;47.798;12.472;2023-12-22T03:10:42;2.27;92.73
72380;SHT30;60354;47.798;12.472;2023-12-22T03:13:07;2.29;93.59
72380;SHT30;60354;47.798;12.472;2023-12-22T03:15:33;2.37;93.57
72380;SHT30;60354;47.798;12.472;2023-12-22T03:17:58;2.41;92.98
72380;SHT30;60354;47.798;12.472;2023-12-22T03:20:24;2.53;92.92
72380;SHT30;60354;47.798;12.472;2023-12-22T03:22:49;2.51;92.53
72380;SHT30;60354;47.798;12.472;2023-12-22T03:25:15;2.58;92.74
72380;SHT30;60354;47.798;12.472;2023-12-22T03:27:40;2.60;92.28
72380;SHT30;60354;47.798;12.472;2023-12-22T03:30:06;2.62;91.97
72380;SHT30;60354;47.798;12.472;2023-12-22T03:32:32;2.62;91.83
72380;SHT30;60354;47.798;12.472;2023-12-22T03:34:57;2.71;91.60
72380;SHT30;60354;47.798;12.472;2023-12-22T03:37:23;2.64;91.78
72380;SHT30;60354;47.798;12.472;2023-12-22T03:39:48;2.62;92.06
72380;SHT30;60354;47.798;12.472;2023-12-22T03:42:14;2.64;91.63
72380;SHT30;60354;47.798;12.472;2023-12-22T03:44:39;2.71;91.49
72380;SHT30;60354;47.798;12.472;2023-12-22T03:47:05;2.53;91.49
72380;SHT30;60354;47.798;12.472;2023-12-22T03:49:30;2.44;91.52
72380;SHT30;60354;47.798;12.472;2023-12-22T03:51:55;2.48;91.96
72380;SHT30;60354;47.798;12.472;2023-12-22T03:54:21;2.53;91.43
72380;SHT30;60354;47.798;12.472;2023-12-22T03:56:46;2.47;91.35
72380;SHT30;60354;47.798;12.472;2023-12-22T03:59:12;2.36;91.91
72380;SHT30;60354;47.798;12.472;2023-12-22T04:01:38;2.41;92.09
72380;SHT30;60354;47.798;12.472;2023-12-22T04:04:04;2.32;92.11
72380;SHT30;60354;47.798;12.472;2023-12-22T04:06:29;2.40;92.09
72380;SHT30;60354;47.798;12.472;2023-12-22T04:08:55;2.37;91.71
72380;SHT30;60354;47.798;12.472;2023-12-22T04:11:20;2.27;91.84
72380;SHT30;60354;47.798;12.472;2023-12-22T04:13:46;2.33;91.91
72380;SHT30;60354;47.798;12.472;2023-12-22T04:16:11;2.27;92.13
72380;SHT30;60354;47.798;12.472;2023-12-22T04:18:37;2.32;92.48
72380;SHT30;60354;47.798;12.472;2023-12-22T04:21:03;2.43;93.04
72380;SHT30;60354;47.798;12.472;2023-12-22T04:23:28;2.54;93.45
72380;SHT30;60354;47.798;12.472;2023-12-22T04:25:54;2.50;91.77
72380;SHT30;60354;47.798;12.472;2023-12-22T04:28:19;2.61;91.91
72380;SHT30;60354;47.798;12.472;2023-12-22T04:30:45;2.62;92.29
72380;SHT30;60354;47.798;12.472;2023-12-22T04:33:10;2.61;91.94
72380;SHT30;60354;47.798;12.472;2023-12-22T04:35:36;2.74;92.26
72380;SHT30;60354;47.798;12.472;2023-12-22T04:38:01;2.70;92.21
72380;SHT30;60354;47.798;12.472;2023-12-22T04:40:27;2.65;92.72
72380;SHT30;60354;47.798;12.472;2023-12-22T04:42:53;2.62;93.09
72380;SHT30;60354;47.798;12.472;2023-12-22T04:45:19;2.67;93.16
72380;SHT30;60354;47.798;12.472;2023-12-22T04:47:44;2.84;92.73
72380;SHT30;60354;47.798;12.472;2023-12-22T04:50:09;2.91;93.08
72380;SHT30;60354;47.798;12.472;2023-12-22T04:52:35;3.11;92.07
72380;SHT30;60354;47.798;12.472;2023-12-22T04:55:00;3.20;91.20
72380;SHT30;60354;47.798;12.472;2023-12-22T04:57:26;3.38;90.23
72380;SHT30;60354;47.798;12.472;2023-12-22T04:59:51;3.49;89.99
72380;SHT30;60354;47.798;12.472;2023-12-22T05:02:17;3.50;90.34
72380;SHT30;60354;47.798;12.472;2023-12-22T05:04:42;3.53;90.13
72380;SHT30;60354;47.798;12.472;2023-12-22T05:07:08;3.52;89.96
72380;SHT30;60354;47.798;12.472;2023-12-22T05:09:35;3.59;89.86
72380;SHT30;60354;47.798;12.472;2023-12-22T05:12:00;3.60;89.99
72380;SHT30;60354;47.798;12.472;2023-12-22T05:14:26;3.63;89.53
72380;SHT30;60354;47.798;12.472;2023-12-22T05:16:51;3.76;88.92
72380;SHT30;60354;47.798;12.472;2023-12-22T05:19:21;3.74;89.68
72380;SHT30;60354;47.798;12.472;2023-12-22T05:21:46;3.71;89.98
72380;SHT30;60354;47.798;12.472;2023-12-22T05:24:11;3.66;89.72
72380;SHT30;60354;47.798;12.472;2023-12-22T05:26:37;3.74;90.03
72380;SHT30;60354;47.798;12.472;2023-12-22T05:29:02;3.71;89.89
72380;SHT30;60354;47.798;12.472;2023-12-22T05:31:28;3.77;90.43
72380;SHT30;60354;47.798;12.472;2023-12-22T05:33:54;3.79;89.95
72380;SHT30;60354;47.798;12.472;2023-12-22T05:36:20;3.91;89.40
72380;SHT30;60354;47.798;12.472;2023-12-22T05:38:46;3.95;89.47
72380;SHT30;60354;47.798;12.472;2023-12-22T05:41:13;3.98;88.94
72380;SHT30;60354;47.798;12.472;2023-12-22T05:43:38;4.04;88.62
72380;SHT30;60354;47.798;12.472;2023-12-22T05:46:04;4.17;88.02
72380;SHT30;60354;47.798;12.472;2023-12-22T05:48:29;4.27;88.24
72380;SHT30;60354;47.798;12.472;2023-12-22T05:50:58;4.31;87.59
72380;SHT30;60354;47.798;12.472;2023-12-22T05:53:23;4.31;88.03
72380;SHT30;60354;47.798;12.472;2023-12-22T05:55:49;4.38;87.75
72380;SHT30;60354;47.798;12.472;2023-12-22T05:58:14;4.41;87.72
72380;SHT30;60354;47.798;12.472;2023-12-22T06:00:40;4.55;87.12
72380;SHT30;60354;47.798;12.472;2023-12-22T06:03:05;4.52;87.41
72380;SHT30;60354;47.798;12.472;2023-12-22T06:05:31;4.69;86.02
72380;SHT30;60354;47.798;12.472;2023-12-22T06:07:56;4.77;85.95
72380;SHT30;60354;47.798;12.472;2023-12-22T06:10:22;4.80;86.38
72380;SHT30;60354;47.798;12.472;2023-12-22T06:12:47;4.76;86.30
72380;SHT30;60354;47.798;12.472;2023-12-22T06:15:13;4.73;87.08
72380;SHT30;60354;47.798;12.472;2023-12-22T06:17:38;4.76;86.49
72380;SHT30;60354;47.798;12.472;2023-12-22T06:20:04;4.77;86.73
72380;SHT30;60354;47.798;12.472;2023-12-22T06:22:30;4.73;87.54
72380;SHT30;60354;47.798;12.472;2023-12-22T06:24:55;4.73;87.40
72380;SHT30;60354;47.798;12.472;2023-12-22T06:27:21;4.58;88.47
72380;SHT30;60354;47.798;12.472;2023-12-22T06:29:46;4.50;89.42
72380;SHT30;60354;47.798;12.472;2023-12-22T06:32:12;4.52;89.54
72380;SHT30;60354;47.798;12.472;2023-12-22T06:34:37;4.37;91.23
72380;SHT30;60354;47.798;12.472;2023-12-22T06:37:03;4.21;92.09
72380;SHT30;60354;47.798;12.472;2023-12-22T06:39:28;4.12;92.85
72380;SHT30;60354;47.798;12.472;2023-12-22T06:41:54;4.11;93.46
72380;SHT30;60354;47.798;12.472;2023-12-22T06:44:19;4.07;93.49
72380;SHT30;60354;47.798;12.472;2023-12-22T06:46:45;4.08;93.79
72380;SHT30;60354;47.798;12.472;2023-12-22T06:49:10;4.08;94.34
72380;SHT30;60354;47.798;12.472;2023-12-22T06:51:36;4.11;94.81
72380;SHT30;60354;47.798;12.472;2023-12-22T06:54:03;4.10;93.97
72380;SHT30;60354;47.798;12.472;2023-12-22T06:56:33;3.98;95.16
72380;SHT30;60354;47.798;12.472;2023-12-22T06:58:59;3.91;94.99
72380;SHT30;60354;47.798;12.472;2023-12-22T07:03:53;3.81;96.27
72380;SHT30;60354;47.798;12.472;2023-12-22T07:06:21;3.83;96.43
72380;SHT30;60354;47.798;12.472;2023-12-22T07:11:49;3.84;96.63
72380;SHT30;60354;47.798;12.472;2023-12-22T07:14:21;3.83;96.78
72380;SHT30;60354;47.798;12.472;2023-12-22T07:16:46;3.86;96.93
72380;SHT30;60354;47.798;12.472;2023-12-22T07:19:12;3.91;96.89
72380;SHT30;60354;47.798;12.472;2023-12-22T07:21:41;3.95;96.69
72380;SHT30;60354;47.798;12.472;2023-12-22T07:24:07;4.02;96.35
72380;SHT30;60354;47.798;12.472;2023-12-22T07:26:33;4.02;96.62
72380;SHT30;60354;47.798;12.472;2023-12-22T07:28:58;4.14;95.73
72380;SHT30;60354;47.798;12.472;2023-12-22T07:31:24;4.19;95.59
72380;SHT30;60354;47.798;12.472;2023-12-22T07:33:50;4.22;95.46
72380;SHT30;60354;47.798;12.472;2023-12-22T07:36:15;4.28;94.76
72380;SHT30;60354;47.798;12.472;2023-12-22T07:38:41;4.41;93.85
72380;SHT30;60354;47.798;12.472;2023-12-22T07:41:07;4.44;93.69
72380;SHT30;60354;47.798;12.472;2023-12-22T07:43:32;4.52;92.99
72380;SHT30;60354;47.798;12.472;2023-12-22T07:45:58;4.58;93.22
72380;SHT30;60354;47.798;12.472;2023-12-22T07:48:24;4.56;93.31
72380;SHT30;60354;47.798;12.472;2023-12-22T07:50:50;4.55;92.62
72380;SHT30;60354;47.798;12.472;2023-12-22T07:53:15;4.60;92.64
72380;SHT30;60354;47.798;12.472;2023-12-22T07:55:41;4.72;90.65
72380;SHT30;60354;47.798;12.472;2023-12-22T07:58:07;4.81;90.59
72380;SHT30;60354;47.798;12.472;2023-12-22T08:00:33;4.76;91.57
72380;SHT30;60354;47.798;12.472;2023-12-22T08:02:58;4.81;91.19
72380;SHT30;60354;47.798;12.472;2023-12-22T08:05:24;4.79;90.94
72380;SHT30;60354;47.798;12.472;2023-12-22T08:07:49;4.86;89.18
72380;SHT30;60354;47.798;12.472;2023-12-22T08:10:15;4.76;91.18
72380;SHT30;60354;47.798;12.472;2023-12-22T08:12:41;4.75;90.91
72380;SHT30;60354;47.798;12.472;2023-12-22T08:15:08;4.69;90.86
72380;SHT30;60354;47.798;12.472;2023-12-22T08:17:36;4.81;89.47
72380;SHT30;60354;47.798;12.472;2023-12-22T08:20:04;4.90;89.53
72380;SHT30;60354;47.798;12.472;2023-12-22T08:22:29;4.89;89.86
72380;SHT30;60354;47.798;12.472;2023-12-22T08:24:55;4.96;89.01
72380;SHT30;60354;47.798;12.472;2023-12-22T08:27:20;4.97;88.91
72380;SHT30;60354;47.798;12.472;2023-12-22T08:29:45;4.99;90.05
72380;SHT30;60354;47.798;12.472;2023-12-22T08:32:11;5.01;89.28
72380;SHT30;60354;47.798;12.472;2023-12-22T08:34:37;5.00;89.41
72380;SHT30;60354;47.798;12.472;2023-12-22T08:37:02;5.01;88.40
72380;SHT30;60354;47.798;12.472;2023-12-22T08:39:28;5.13;88.01
72380;SHT30;60354;47.798;12.472;2023-12-22T08:41:53;5.10;88.86
72380;SHT30;60354;47.798;12.472;2023-12-22T08:44:19;5.13;89.50
72380;SHT30;60354;47.798;12.472;2023-12-22T08:46:44;4.89;89.36
72380;SHT30;60354;47.798;12.472;2023-12-22T08:49:10;4.38;89.07
72380;SHT30;60354;47.798;12.472;2023-12-22T08:51:36;3.97;89.32
72380;SHT30;60354;47.798;12.472;2023-12-22T08:54:01;3.76;90.20
72380;SHT30;60354;47.798;12.472;2023-12-22T08:56:27;3.62;91.05
72380;SHT30;60354;47.798;12.472;2023-12-22T08:58:54;3.69;91.45
72380;SHT30;60354;47.798;12.472;2023-12-22T09:01:24;3.71;91.32
72380;SHT30;60354;47.798;12.472;2023-12-22T09:03:50;3.56;91.23
72380;SHT30;60354;47.798;12.472;2023-12-22T09:08:42;3.43;92.44
72380;SHT30;60354;47.798;12.472;2023-12-22T09:11:08;3.39;92.50
72380;SHT30;60354;47.798;12.472;2023-12-22T09:13:33;3.39;92.76
72380;SHT30;60354;47.798;12.472;2023-12-22T09:16:01;3.40;93.24
72380;SHT30;60354;47.798;12.472;2023-12-22T09:18:28;3.40;93.46
72380;SHT30;60354;47.798;12.472;2023-12-22T09:20:53;3.50;94.19
72380;SHT30;60354;47.798;12.472;2023-12-22T09:23:19;3.50;93.92
72380;SHT30;60354;47.798;12.472;2023-12-22T09:25:45;3.47;93.96
72380;SHT30;60354;47.798;12.472;2023-12-22T09:28:10;3.53;94.32
72380;SHT30;60354;47.798;12.472;2023-12-22T09:30:36;3.52;94.06
72380;SHT30;60354;47.798;12.472;2023-12-22T09:33:01;3.56;94.57
72380;SHT30;60354;47.798;12.472;2023-12-22T09:35:27;3.60;94.94
72380;SHT30;60354;47.798;12.472;2023-12-22T09:37:53;3.66;95.05
72380;SHT30;60354;47.798;12.472;2023-12-22T09:40:19;3.81;95.24
72380;SHT30;60354;47.798;12.472;2023-12-22T09:42:45;3.97;95.41
72380;SHT30;60354;47.798;12.472;2023-12-22T09:45:11;4.05;95.15
72380;SHT30;60354;47.798;12.472;2023-12-22T09:47:41;4.14;95.00
72380;SHT30;60354;47.798;12.472;2023-12-22T09:50:08;4.29;94.90
72380;SHT30;60354;47.798;12.472;2023-12-22T09:52:35;4.34;94.59
72380;SHT30;60354;47.798;12.472;2023-12-22T09:55:01;4.39;94.40
72380;SHT30;60354;47.798;12.472;2023-12-22T09:57:30;4.49;94.23
72380;SHT30;60354;47.798;12.472;2023-12-22T09:59:57;4.63;92.96
72380;SHT30;60354;47.798;12.472;2023-12-22T10:02:27;4.73;92.34
72380;SHT30;60354;47.798;12.472;2023-12-22T10:04:54;4.77;92.23
72380;SHT30;60354;47.798;12.472;2023-12-22T10:07:20;4.83;91.49
72380;SHT30;60354;47.798;12.472;2023-12-22T10:09:47;4.90;91.49
72380;SHT30;60354;47.798;12.472;2023-12-22T10:12:14;4.90;91.10
72380;SHT30;60354;47.798;12.472;2023-12-22T10:14:41;4.94;90.43
72380;SHT30;60354;47.798;12.472;2023-12-22T10:17:07;5.00;90.49
72380;SHT30;60354;47.798;12.472;2023-12-22T10:19:32;5.03;90.04
72380;SHT30;60354;47.798;12.472;2023-12-22T10:21:58;5.06;90.07
72380;SHT30;60354;47.798;12.472;2023-12-22T10:24:39;5.11;88.86
72380;SHT30;60354;47.798;12.472;2023-12-22T10:27:08;5.17;89.03
72380;SHT30;60354;47.798;12.472;2023-12-22T10:29:34;5.31;88.41
72380;SHT30;60354;47.798;12.472;2023-12-22T10:32:04;5.26;88.92
72380;SHT30;60354;47.798;12.472;2023-12-22T10:34:30;5.31;88.68
72380;SHT30;60354;47.798;12.472;2023-12-22T10:36:56;5.37;88.94
72380;SHT30;60354;47.798;12.472;2023-12-22T10:39:22;5.27;89.09
72380;SHT30;60354;47.798;12.472;2023-12-22T10:41:48;5.23;89.15
72380;SHT30;60354;47.798;12.472;2023-12-22T10:44:17;5.16;89.28
72380;SHT30;60354;47.798;12.472;2023-12-22T10:46:43;5.09;89.76
72380;SHT30;60354;47.798;12.472;2023-12-22T10:49:08;5.01;90.62
72380;SHT30;60354;47.798;12.472;2023-12-22T10:51:34;4.86;90.40
72380;SHT30;60354;47.798;12.472;2023-12-22T10:53:59;4.73;91.07
72380;SHT30;60354;47.798;12.472;2023-12-22T10:56:25;4.56;92.33
72380;SHT30;60354;47.798;12.472;2023-12-22T10:58:51;4.42;92.42
72380;SHT30;60354;47.798;12.472;2023-12-22T11:01:21;4.22;92.83
72380;SHT30;60354;47.798;12.472;2023-12-22T11:03:50;4.21;93.92
72380;SHT30;60354;47.798;12.472;2023-12-22T11:06:17;4.21;93.78
72380;SHT30;60354;47.798;12.472;2023-12-22T11:08:46;4.12;93.55
72380;SHT30;60354;47.798;12.472;2023-12-22T11:11:27;4.00;94.18
72380;SHT30;60354;47.798;12.472;2023-12-22T11:13:56;4.07;94.25
72380;SHT30;60354;47.798;12.472;2023-12-22T11:16:24;3.97;94.35
72380;SHT30;60354;47.798;12.472;2023-12-22T11:18:52;3.90;94.42
72380;SHT30;60354;47.798;12.472;2023-12-22T11:21:25;3.86;95.26
72380;SHT30;60354;47.798;12.472;2023-12-22T11:23:51;3.87;95.53
72380;SHT30;60354;47.798;12.472;2023-12-22T11:26:18;3.91;95.05
72380;SHT30;60354;47.798;12.472;2023-12-22T11:28:48;3.94;94.90
72380;SHT30;60354;47.798;12.472;2023-12-22T11:31:14;3.88;94.61
72380;SHT30;60354;47.798;12.472;2023-12-22T11:33:45;3.81;95.17
72380;SHT30;60354;47.798;12.472;2023-12-22T11:36:11;3.77;94.56
72380;SHT30;60354;47.798;12.472;2023-12-22T11:38:37;3.76;94.77
72380;SHT30;60354;47.798;12.472;2023-12-22T11:41:04;3.81;94.92
72380;SHT30;60354;47.798;12.472;2023-12-22T11:43:31;3.80;95.16
72380;SHT30;60354;47.798;12.472;2023-12-22T11:46:02;3.79;94.72
72380;SHT30;60354;47.798;12.472;2023-12-22T11:48:28;3.81;95.12
72380;SHT30;60354;47.798;12.472;2023-12-22T11:50:54;3.87;94.79
72380;SHT30;60354;47.798;12.472;2023-12-22T11:53:29;3.97;94.73
72380;SHT30;60354;47.798;12.472;2023-12-22T11:56:05;4.07;94.84
72380;SHT30;60354;47.798;12.472;2023-12-22T12:01:01;4.27;95.58
72380;SHT30;60354;47.798;12.472;2023-12-22T12:03:30;4.42;95.57
72380;SHT30;60354;47.798;12.472;2023-12-22T12:08:37;4.75;94.75
72380;SHT30;60354;47.798;12.472;2023-12-22T12:11:02;4.81;94.49
72380;SHT30;60354;47.798;12.472;2023-12-22T12:13:31;4.86;94.54
72380;SHT30;60354;47.798;12.472;2023-12-22T12:15:58;4.97;93.70
72380;SHT30;60354;47.798;12.472;2023-12-22T12:18:30;5.01;94.22
72380;SHT30;60354;47.798;12.472;2023-12-22T12:20:56;5.01;93.91
72380;SHT30;60354;47.798;12.472;2023-12-22T12:23:26;5.00;94.86
72380;SHT30;60354;47.798;12.472;2023-12-22T12:25:55;5.00;94.72
72380;SHT30;60354;47.798;12.472;2023-12-22T12:28:25;5.04;94.62
72380;SHT30;60354;47.798;12.472;2023-12-22T12:30:59;5.06;94.19
72380;SHT30;60354;47.798;12.472;2023-12-22T12:33:25;5.01;94.69
72380;SHT30;60354;47.798;12.472;2023-12-22T12:35:53;5.03;95.04
72380;SHT30;60354;47.798;12.472;2023-12-22T12:38:21;5.07;94.61
72380;SHT30;60354;47.798;12.472;2023-12-22T12:40:50;5.07;94.50
72380;SHT30;60354;47.798;12.472;2023-12-22T12:43:17;5.11;94.56
72380;SHT30;60354;47.798;12.472;2023-12-22T12:45:43;5.16;94.20
72380;SHT30;60354;47.798;12.472;2023-12-22T12:48:08;5.16;94.07
72380;SHT30;60354;47.798;12.472;2023-12-22T12:50:34;5.14;94.40
72380;SHT30;60354;47.798;12.472;2023-12-22T12:53:00;5.13;94.63
72380;SHT30;60354;47.798;12.472;2023-12-22T12:55:26;5.17;94.50
72380;SHT30;60354;47.798;12.472;2023-12-22T12:57:53;5.27;92.87
72380;SHT30;60354;47.798;12.472;2023-12-22T13:00:30;5.37;92.33
72380;SHT30;60354;47.798;12.472;2023-12-22T13:03:00;5.40;92.47
72380;SHT30;60354;47.798;12.472;2023-12-22T13:05:28;5.47;92.41
72380;SHT30;60354;47.798;12.472;2023-12-22T13:08:12;5.47;91.79
72380;SHT30;60354;47.798;12.472;2023-12-22T13:10:38;5.54;91.07
72380;SHT30;60354;47.798;12.472;2023-12-22T13:13:05;5.66;90.11
72380;SHT30;60354;47.798;12.472;2023-12-22T13:15:30;5.66;90.39
72380;SHT30;60354;47.798;12.472;2023-12-22T13:17:56;5.66;89.72
72380;SHT30;60354;47.798;12.472;2023-12-22T13:20:23;5.66;90.45
72380;SHT30;60354;47.798;12.472;2023-12-22T13:22:48;5.62;90.53
72380;SHT30;60354;47.798;12.472;2023-12-22T13:25:17;5.69;89.41
72380;SHT30;60354;47.798;12.472;2023-12-22T13:27:49;5.63;90.39
72380;SHT30;60354;47.798;12.472;2023-12-22T13:30:18;5.63;90.27
72380;SHT30;60354;47.798;12.472;2023-12-22T13:32:56;5.72;88.25
72380;SHT30;60354;47.798;12.472;2023-12-22T13:35:23;5.72;88.64
72380;SHT30;60354;47.798;12.472;2023-12-22T13:37:49;5.75;89.46
72380;SHT30;60354;47.798;12.472;2023-12-22T13:40:14;5.79;88.11
72380;SHT30;60354;47.798;12.472;2023-12-22T13:42:40;5.75;89.35
72380;SHT30;60354;47.798;12.472;2023-12-22T13:45:10;5.69;89.23
72380;SHT30;60354;47.798;12.472;2023-12-22T13:47:40;5.69;89.02
72380;SHT30;60354;47.798;12.472;2023-12-22T13:50:13;5.68;88.92
72380;SHT30;60354;47.798;12.472;2023-12-22T13:52:39;5.66;89.86
72380;SHT30;60354;47.798;12.472;2023-12-22T13:55:13;5.62;89.60
72380;SHT30;60354;47.798;12.472;2023-12-22T13:57:38;5.59;89.30
72380;SHT30;60354;47.798;12.472;2023-12-22T14:02:48;5.50;90.72
72380;SHT30;60354;47.798;12.472;2023-12-22T14:05:18;5.58;89.91
72380;SHT30;60354;47.798;12.472;2023-12-22T14:07:43;5.62;89.89
72380;SHT30;60354;47.798;12.472;2023-12-22T14:10:10;5.47;91.91
72380;SHT30;60354;47.798;12.472;2023-12-22T14:12:36;5.41;91.96
72380;SHT30;60354;47.798;12.472;2023-12-22T14:15:06;5.44;91.62
72380;SHT30;60354;47.798;12.472;2023-12-22T14:17:32;5.40;92.11
72380;SHT30;60354;47.798;12.472;2023-12-22T14:19:57;5.32;92.68
72380;SHT30;60354;47.798;12.472;2023-12-22T14:22:23;5.30;92.62
72380;SHT30;60354;47.798;12.472;2023-12-22T14:24:48;5.27;92.87
72380;SHT30;60354;47.798;12.472;2023-12-22T14:27:14;5.37;92.24
72380;SHT30;60354;47.798;12.472;2023-12-22T14:29:43;5.47;91.07
72380;SHT30;60354;47.798;12.472;2023-12-22T14:32:08;5.54;91.12
72380;SHT30;60354;47.798;12.472;2023-12-22T14:34:34;5.54;91.45
72380;SHT30;60354;47.798;12.472;2023-12-22T14:37:00;5.55;91.26
72380;SHT30;60354;47.798;12.472;2023-12-22T14:39:26;5.59;91.34
72380;SHT30;60354;47.798;12.472;2023-12-22T14:41:52;5.73;90.57
72380;SHT30;60354;47.798;12.472;2023-12-22T14:44:17;5.86;89.63
72380;SHT30;60354;47.798;12.472;2023-12-22T14:46:43;5.90;89.40
72380;SHT30;60354;47.798;12.472;2023-12-22T14:49:10;6.05;88.73
72380;SHT30;60354;47.798;12.472;2023-12-22T14:51:39;6.19;88.41
72380;SHT30;60354;47.798;12.472;2023-12-22T14:54:05;6.30;87.70
72380;SHT30;60354;47.798;12.472;2023-12-22T14:56:31;6.43;87.03
72380;SHT30;60354;47.798;12.472;2023-12-22T14:58:57;6.51;87.03
72380;SHT30;60354;47.798;12.472;2023-12-22T15:01:22;6.65;85.53
72380;SHT30;60354;47.798;12.472;2023-12-22T15:03:48;6.92;83.93
72380;SHT30;60354;47.798;12.472;2023-12-22T15:06:13;6.85;85.02
72380;SHT30;60354;47.798;12.472;2023-12-22T15:08:39;6.84;85.24
72380;SHT30;60354;47.798;12.472;2023-12-22T15:11:04;6.92;84.85
72380;SHT30;60354;47.798;12.472;2023-12-22T15:13:29;6.84;85.89
72380;SHT30;60354;47.798;12.472;2023-12-22T15:15:55;6.80;86.34
72380;SHT30;60354;47.798;12.472;2023-12-22T15:18:20;6.71;86.73
72380;SHT30;60354;47.798;12.472;2023-12-22T15:20:46;6.72;85.66
72380;SHT30;60354;47.798;12.472;2023-12-22T15:23:11;6.72;86.38
72380;SHT30;60354;47.798;12.472;2023-12-22T15:25:37;6.78;85.78
72380;SHT30;60354;47.798;12.472;2023-12-22T15:28:02;6.77;86.05
72380;SHT30;60354;47.798;12.472;2023-12-22T15:30:28;6.84;85.58
72380;SHT30;60354;47.798;12.472;2023-12-22T15:32:53;6.84;85.65
72380;SHT30;60354;47.798;12.472;2023-12-22T15:35:19;6.88;85.06
72380;SHT30;60354;47.798;12.472;2023-12-22T15:37:45;6.92;84.92
72380;SHT30;60354;47.798;12.472;2023-12-22T15:40:10;6.89;85.29
72380;SHT30;60354;47.798;12.472;2023-12-22T15:42:37;6.96;84.52